Cherry Point MCAS /Cunningham Field/
KNKT : now visible

Airfield :











YOU CAN JOIN US ON...

 
LOGIN :

Register | Disclaimer

   EN    FR    IT 

 









Legend :    VFR   Marginal VFR   IFR   Intensive IFR   Very Intensive IFR
Visi :
Ceiling :
>= 8 km
>= 3000ft
5 to 8 km
1000 to 3000 ft
1500m to 5 km
500 to 1000 ft
800 to 1500m
200 to 500 ft
< 800m
< 200 ft
Symbols :   Thunderstorms  Fog  Heavy snow  Heavy precipitations  Wind > 20 kt







- Airport Elevation : 29 ft


KNKT - Cherry Point MCAS /Cunningham Field/

CURRENT METAR :
  • 211754Z 00000KT 10SM CLR 28/13 A3028 RMK AO2 SLP249 T02780133 10289 20161 58017 $

EXPIRED METARs :
  • 211654Z 29007KT 10SM CLR 28/13 A3030 RMK AO2 SLP255 T02780133
  • 211554Z VRB05KT 10SM CLR 28/13 A3032 RMK AO2 SLP262 T02780133

TAF TAF KNKT
Valid from the 21 at 15:00 until the 22 at 15:00 UTC


2115/2215 VRB05KT 9999 SKC QNH3034INS
TEMPO 2210/2212 VRB03KT 9999 BR FEW050 QNH3020INS T26/2119Z T16/2211Z
No reported NOTAMs for that airfield.



MET'MAP, your aeronautical weather chart ! - Copyright ORBIFLY December 2007 - Disclaimer

ORBIFLY MET'MAP TEAM :

Programming & Development : Alexandra Zaïnal
Concept & Development : Baudouin d'Aumeries
Co-Development & Prog : Marc-Olivier Méhu
Technical & hardware support : Manuel Goepfert

Contact : metmap@orbifly.com




SOURCES & CREDITS :

   NOAA       Earth
Advisory